Данни от 14.08.2020 г. 08:18:59

Температура вътрешна: 27.4 °C
Температура външна: 23.4 °C
Атмосферно налягане: 997.2 hPa
Атмосферно налягане на морско равнище: 1015.0 hPa
Влажност: 51.7 %



История от последните 24 часа

Дата и часTin [°C]P [hPa]Psl [hPa]H [%]Tout [°C]
   14.08.2020 г. 08:00:59      27.2      997.0      1014.8      50.7      23.1   
   14.08.2020 г. 07:30:58      27.1      997.2      1015.0      50.9      22.5   
   14.08.2020 г. 07:00:59      26.9      997.1      1014.9      50.7      21.3   
   14.08.2020 г. 06:30:58      26.9      997.1      1014.9      49.6      21.6   
   14.08.2020 г. 06:00:59      27.2      997.2      1015.0      50.2      22.3   
   14.08.2020 г. 05:30:58      27.2      997.1      1014.9      50.9      22.6   
   14.08.2020 г. 05:00:59      27.2      997.2      1015.0      51.0      22.9   
   14.08.2020 г. 04:30:58      27.3      997.2      1015.0      50.4      23.3   
   14.08.2020 г. 04:00:58      27.3      997.4      1015.2      50.7      23.4   
   14.08.2020 г. 03:30:58      27.4      997.6      1015.4      50.7      23.9   
   14.08.2020 г. 03:00:58      27.6      997.8      1015.6      49.8      24.3   
   14.08.2020 г. 02:30:58      27.8      997.9      1015.7      50.3      24.4   
   14.08.2020 г. 02:00:58      27.8      998.0      1015.8      49.7      24.1   
   14.08.2020 г. 01:30:59      27.9      998.1      1015.9      49.5      25.0   
   14.08.2020 г. 01:00:58      27.7      998.0      1015.9      49.4      25.0   
   14.08.2020 г. 00:30:59      27.8      998.1      1015.9      48.6      25.8   
   14.08.2020 г. 00:00:58      27.9      998.1      1015.9      48.3      25.4   
   13.08.2020 г. 23:30:59      27.8      998.0      1015.8      47.4      26.3   
   13.08.2020 г. 23:00:58      28.0      997.9      1015.7      46.8      25.9   
   13.08.2020 г. 22:30:59      28.0      997.9      1015.7      45.5      26.0   
   13.08.2020 г. 22:00:58      28.0      997.9      1015.7      45.4      26.5   
   13.08.2020 г. 21:30:59      28.2      997.6      1015.4      45.9      26.0   
   13.08.2020 г. 21:00:58      28.4      997.6      1015.4      46.5      27.1   
   13.08.2020 г. 20:30:59      28.5      997.4      1015.2      48.7      27.6   
   13.08.2020 г. 20:00:58      28.5      997.2      1015.0      47.3      31.9   
   13.08.2020 г. 19:30:59      28.4      997.1      1014.9      47.0      32.6   
   13.08.2020 г. 19:00:58      28.3      997.1      1014.9      47.6      32.5   
   13.08.2020 г. 18:30:59      28.4      997.1      1014.9      47.4      34.1   
   13.08.2020 г. 18:00:58      28.2      997.1      1014.9      46.6      35.8   
   13.08.2020 г. 17:30:59      28.2      997.2      1015.0      46.2      36.5   
   13.08.2020 г. 17:00:58      28.2      997.4      1015.2      46.7      35.3   
   13.08.2020 г. 16:30:59      28.3      997.6      1015.4      49.0      34.1   
   13.08.2020 г. 16:00:58      28.2      997.8      1015.6      48.2      32.9   
   13.08.2020 г. 15:30:59      28.1      998.1      1015.9      50.3      31.7   
   13.08.2020 г. 15:00:58      28.1      998.3      1016.1      50.8      30.5   
   13.08.2020 г. 14:30:59      28.1      998.7      1016.5      51.1      29.3   
   13.08.2020 г. 14:00:58      28.0      999.0      1016.9      51.7      29.0   
   13.08.2020 г. 13:30:58      28.0      999.3      1017.1      52.2      28.1   
   13.08.2020 г. 13:00:59      28.0      999.6      1017.4      53.4      28.3   
   13.08.2020 г. 12:30:58      28.0      999.8      1017.6      53.4      27.3   
   13.08.2020 г. 12:00:59      27.9      1000.1      1017.9      53.8      26.8   
   13.08.2020 г. 11:30:58      27.8      1000.4      1018.2      53.6      26.0   
   13.08.2020 г. 11:00:59      27.8      1000.4      1018.3      54.4      25.3   
   13.08.2020 г. 10:30:58      27.6      1000.4      1018.2      55.1      24.5   
   13.08.2020 г. 10:00:59      27.5      1000.4      1018.2      54.6      23.9   
   13.08.2020 г. 09:30:58      27.3      1000.4      1018.3      55.4      23.0   
   13.08.2020 г. 09:00:59      26.9      1000.3      1018.2      56.4      22.3   
   13.08.2020 г. 08:30:58      27.0      1000.5      1018.3      54.9      21.8   

BaroSL graphic

TEMPE graphic